• Join FlightAware (Why Join?)
  • Login
  • US Flag 
04:11AM EST


 

Airport Tracker/Info


-or-


 

Live Flight TrackerFlight Track Log ✈ XOJ549 ✈ 07-May-2013 ✈ KSDM - KSMO

Flight Track Log - Related Links

Times and Time Zones

All times are in EDT time to prevent confusion due to time zone crossing. See the XOJ549 flight status page for this flight to view local times or setup timezone preferences in your user account.

Time Position Orientation Groundspeed Altitude Reporting Facility
EDT Latitude Longitude Course Direction KTS MPH feet Rate Location/Type
10:38AM 32.5833 -117.0167 319° Northwest 181 208 3,000  Level Southern California TRACON
10:39AM 32.6000 -117.1000 283° West 230 265 6,200 3,360 Climbing Southern California TRACON
10:40AM 32.5833 -117.1833 257° West 267 307 9,800 1,980 Climbing Southern California TRACON
10:41AM 32.5833 -117.2667 270° West 292 336 10,000 60 Climbing Southern California TRACON
10:42AM 32.6500 -117.3500 314° West 331 381 10,000  Level Southern California TRACON
10:42AM 32.6631 -117.3569 336° Northwest 331 381 10,000  Level Los Angeles Center
10:43AM 32.8981 -117.3034 319° Northwest  Level FlightAware Approximate
10:43AM 32.7394 -117.4156 327° Northwest 329 379 10,000  Level Los Angeles Center
10:44AM 32.8156 -117.4744 327° Northwest 320 368 10,000  Level Los Angeles Center
10:45AM 32.8869 -117.5319 326° Northwest 315 362 10,000  Level Los Angeles Center
10:46AM 32.9597 -117.5897 326° Northwest 314 361 10,000  Level Los Angeles Center
10:47AM 33.0322 -117.6489 326° Northwest 316 364 10,000  Level Los Angeles Center
10:48AM 33.1036 -117.7103 324° Northwest 317 365 10,000  Level Los Angeles Center
10:49AM 33.1842 -117.7536 336° Northwest 320 368 10,000  Level Los Angeles Center
10:50AM 33.2825 -117.8017 338° Northwest 319 367 10,000  Level Los Angeles Center
10:51AM 33.3633 -117.8419 337° Northwest 318 366 10,000 -240 Level Los Angeles Center
10:52AM 33.4167 -117.8667 339° North 281 323 9,700 -1,020 Descending Southern California TRACON
10:52AM 33.4350 -117.8778 333° Northwest 297 342 9,000 -1,140 Descending Los Angeles Center
10:53AM 33.5022 -117.9133 336° Northwest 274 315 8,000 -540 Descending Los Angeles Center
10:54AM 33.5731 -117.9486 337° Northwest 272 313 8,000  Level Los Angeles Center
10:55AM 33.6333 -117.9833 334° Northwest 284 327 8,000  Level Southern California TRACON
10:56AM 33.7000 -118.0167 337° Northwest 280 322 8,000  Level Southern California TRACON
10:57AM 33.7667 -118.0500 337° Northwest 305 351 8,000  Level Southern California TRACON
10:58AM 33.8333 -118.0833 337° Northwest 273 314 8,000 -420 Level Southern California TRACON
10:59AM 33.9167 -118.1333 334° Northwest 243 280 7,200 -660 Descending Southern California TRACON
10:59AM 33.9294 -118.1439 326° Northwest 252 290 7,000 -180 Descending Los Angeles Center
11:00AM 33.9875 -118.1781 334° Northwest 238 274 7,000 -540 Level Los Angeles Center
11:01AM 34.0547 -118.2175 334° Northwest 227 261 6,000 -1,020 Descending Los Angeles Center
11:02AM 34.1094 -118.2522 332° Northwest 226 260 5,000 -780 Descending Los Angeles Center
11:04AM 34.1258 -118.2939 295° West 182 209 4,500 -1,200 Descending Los Angeles Center
11:05AM 34.1014 -118.3444 240° Southwest 177 204 2,600 -1,200 Descending Los Angeles Center
11:06AM 34.0717 -118.3794 224° Southwest 164 189 2,100 -720 Descending Los Angeles Center
11:07AM 34.0458 -118.4119 226° Southwest 149 171 1,200 -960 Descending Los Angeles Center
11:08AM 34.0186 -118.4492 229° Southwest 134 154 200 -1,020 Descending Los Angeles Center